Tiempo atmosférico en la estación meteorológica de Berga, Barcelona (690 m.)



Fecha
DESCASC
Temp. máxima en grados centígrados (hora)
DESCASC
Temp. mínima en grados centígrados (hora)
DESCASC
Temp. media en grados centígrados
DESCASC
Racha de viento máxima en m/sg (hora)
DESCASC
Velocidad máxima media en intervalos de 10 minutos(hora)
DESCASC
Precipitaciones diarias en mm
DESCASC
Precipitaciones de 00:00 a 06:00 en mm
DESCASC
Precipitaciones de 06:00 a 12:00 en mm
DESCASC
Precipitaciones de 12:00 a 18:00 en mm
DESCASC
Precipitaciones de 18:00 a 24:00 en mm
DESCASC
23-05-2018 23.8 (16:10) 11.7 (07:00) 17.7 9.17 (15:00) 5.56 (15:50) 1 0 0 0 1
22-05-2018 19.6 (14:30) 10.2 (05:50) 14.9 5.83 (07:00) 3.33 (06:50) 1.6 0 0 1.6 0
21-05-2018 21.2 (16:30) 10.3 (06:10) 15.8 12.78 (19:10) 6.94 (19:00) 0 0 0 0 0
20-05-2018 22.1 (12:50) 9.9 (00:00) 16 8.33 (15:30) 4.72 (13:50) 9 0 0 8.6 0.4
19-05-2018 21.6 (13:00) 10.7 (00:00) 16.2 8.61 (21:10) 5.56 (21:00) 1 0 0 1 0
18-05-2018 21.4 (15:50) 9.8 (00:00) 15.6 6.67 (16:30) 4.17 (16:30) 0 0 0 0 0
17-05-2018 22.3 (15:00) 9.5 (00:00) 15.9 7.78 (12:20) 4.17 (14:30) 0 0 0 0 0
16-05-2018 18.1 (17:50) 8 (00:00) 13.1 3.89 (12:40) 2.78 (13:20) 0 0 0 0 0
15-05-2018 18.9 (15:40) 5.2 (00:00) 12 5.28 (08:00) 3.33 (15:00) 0 0 0 0 0
14-05-2018 15.4 (12:50) 3.5 (00:00) 9.4 7.22 (12:40) 4.44 (13:00) 0 0 0 0 0
13-05-2018 15.8 (16:50) 5.5 (00:00) 10.7 9.44 (15:20) 5 (03:50) 4.8 4.8 0 0 0
12-05-2018 17.1 (12:00) 9.3 (00:00) 13.2 9.44 (21:30) 5 (20:20) 31.2 0 0 0 31.2
11-05-2018 22.5 (17:50) 11.2 (07:30) 16.8 9.72 (14:10) 6.11 (13:30) 0 0 0 0 0
10-05-2018 -- (--) -- (--) -- -- (--) -- (--) -- -- -- 0 0
09-05-2018 -- (--) -- (--) -- -- (--) -- (--) -- -- -- -- --
08-05-2018 -- (--) -- (--) -- -- (--) -- (--) -- -- -- -- --
07-05-2018 -- (--) -- (--) -- -- (--) -- (--) -- -- -- -- --
06-05-2018 -- (--) -- (--) -- -- (--) -- (--) -- -- -- -- --
05-05-2018 -- (--) -- (--) -- -- (--) -- (--) -- -- -- -- --
04-05-2018 -- (--) -- (--) -- -- (--) -- (--) -- -- -- -- --
03-05-2018 -- (--) -- (--) -- -- (--) -- (--) -- -- -- -- --
02-05-2018 -- (--) -- (--) -- -- (--) -- (--) -- -- -- -- --
01-05-2018 -- (--) -- (--) -- -- (--) -- (--) -- -- -- -- --
30-04-2018 -- (--) -- (--) -- -- (--) -- (--) -- -- -- -- --
29-04-2018 -- (--) -- (--) -- -- (--) -- (--) -- 0 1.4 -- --
28-04-2018 20.1 (15:10) 11.5 (00:00) 15.8 6.67 (03:30) 4.44 (03:30) 0.2 0 0.2 0 0
27-04-2018 25.3 (15:00) 10.5 (00:00) 17.9 8.06 (14:30) 4.17 (19:20) 2.2 0 0 0 2.2
26-04-2018 21.6 (16:00) 11 (00:00) 16.3 6.11 (13:30) 3.33 (13:40) 0 0 0 0 0
25-04-2018 27.7 (15:00) 12.9 (00:00) 20.3 10.28 (15:40) 6.94 (15:40) 1.8 0 0 1.8 0
24-04-2018 24.9 (15:40) 12.3 (00:00) 18.6 8.61 (17:20) 4.72 (17:00) 0 0 0 0 0

Gráficas

Temp. máximas Temp. mínimas Temp. medias Precipitaciones Rachas de viento máximas Velocidades máximas media en intervalos de 10 minutos

Datos horarios

Fecha y hora oficial Temperatura (ºC) Velocidad del viento (km/h) Dirección del viento Racha (km/h) Dirección de racha Precipitación (mm) Presión (hPa) Tendencia (hPa) Humedad (%)
2018-05-23 23:00:00 15.2 6 Este 9 Este 0 -- -- 88
2018-05-23 22:00:00 15.7 5 Este 12 Norte 0 -- -- 87
2018-05-23 21:00:00 16.8 6 Este 15 Sudoeste 1 -- -- 83
2018-05-23 20:00:00 19.4 3 Sudeste 22 Sudoeste 0 -- -- 61
2018-05-23 19:00:00 20.5 8 Sudoeste 26 Sudoeste 0 -- -- 60
2018-05-23 18:00:00 21.6 13 Sudoeste 32 Sudoeste 0 -- -- 55
2018-05-23 17:00:00 23.3 19 Sudoeste 29 Sudoeste 0 -- -- 40
2018-05-23 16:00:00 23.5 19 Oeste 32 Sudoeste 0 -- -- 43
2018-05-23 15:00:00 22.6 15 Sudoeste 33 Sudoeste 0 -- -- 52
2018-05-23 14:00:00 22.6 11 Sudoeste 24 Sudoeste 0 -- -- 53
2018-05-23 13:00:00 21.7 11 Sudoeste 23 Sudoeste 0 -- -- 57
2018-05-23 12:00:00 21.3 9 Oeste 18 Oeste 0 -- -- 57
2018-05-23 11:00:00 19.7 10 Oeste 17 Sudoeste 0 -- -- 64
2018-05-23 10:00:00 18.1 4 Noroeste 7 Oeste 0 -- -- 68
2018-05-23 09:00:00 14.4 4 Este 13 Este 0 -- -- 78
2018-05-23 08:00:00 12.3 7 Este 14 Este 0 -- -- 84
2018-05-23 07:00:00 11.7 7 Este 13 Este 0 -- -- 85
2018-05-23 06:00:00 12 5 Este 10 Este 0 -- -- 84
2018-05-23 05:00:00 13 4 Nordeste 17 Nordeste 0 -- -- 82
2018-05-23 04:00:00 13 6 Este 19 Este 0 -- -- 84
2018-05-23 03:00:00 13 6 Este 14 Nordeste 0 -- -- 86
2018-05-23 02:00:00 12.9 6 Este 12 Este 0 -- -- 86
2018-05-23 01:00:00 12.9 4 Este 9 Este 0 -- -- 88
2018-05-23 00:00:00 12.5 6 Este 9 Este 0 -- -- 89
2018-05-22 23:00:00 13.1 4 Nordeste 7 Este 0 -- -- 86
2018-05-22 22:00:00 14.1 3 Nordeste 7 Nordeste 0 -- -- 81
2018-05-22 21:00:00 15.2 2 Este 8 Oeste 0 -- -- 77
2018-05-22 20:00:00 16.4 6 Sudoeste 15 Oeste 0 -- -- 73
2018-05-22 19:00:00 17.1 7 Sudoeste 10 Sudoeste 0 -- -- 76
2018-05-22 18:00:00 16.3 5 Este 19 Este 0.2 -- -- 79
2018-05-22 17:00:00 14.5 5 Nordeste 17 Oeste 1.2 -- -- 85
2018-05-22 16:00:00 16.2 9 Oeste 15 Norte 0.2 -- -- 69
2018-05-22 15:00:00 18.4 6 Oeste 15 Oeste 0 -- -- 63
2018-05-22 14:00:00 18 6 Sur 16 Sudoeste 0 -- -- 66
2018-05-22 13:00:00 16.8 7 Sudoeste 13 Sudoeste 0 -- -- 71
2018-05-22 12:00:00 15.9 8 Sudoeste 11 Sudoeste 0 -- -- 78
2018-05-22 11:00:00 15 2 Este 7 Nordeste 0 -- -- 75
2018-05-22 10:00:00 13.4 5 Este 11 Este 0 -- -- 81
2018-05-22 09:00:00 12.3 7 Este 10 Este 0 -- -- 83
2018-05-22 08:00:00 11.9 7 Este 20 Este 0 -- -- 81
2018-05-22 07:00:00 11.5 10 Este 21 Este 0 -- -- 82
2018-05-22 06:00:00 10.2 9 Este 15 Este 0 -- -- 89
2018-05-22 05:00:00 10.4 6 Este 12 Este 0 -- -- 89
2018-05-22 04:00:00 10.3 6 Este 14 Nordeste 0 -- -- 90
2018-05-22 03:00:00 11 4 Este 10 Este 0 -- -- 88
2018-05-22 02:00:00 11.7 5 Este 17 Este 0 -- -- 86
2018-05-22 01:00:00 12.3 0 Calma 14 Nordeste 0 -- -- 85
2018-05-22 00:00:00 12.8 3 Este 8 Este 0 -- -- 85
2018-05-21 23:00:00 13.7 3 Este 6 Nordeste 0 -- -- 82
2018-05-21 22:00:00 14.2 2 Sur 12 Oeste 0 -- -- 78
2018-05-21 21:00:00 15 5 Sudeste 15 Este 0 -- -- 71
2018-05-21 20:00:00 15.2 14 Nordeste 46 Este 0 -- -- 69
2018-05-21 19:00:00 15.9 25 Nordeste 42 Nordeste 0 -- -- 63
2018-05-21 18:00:00 19.1 4 Nordeste 11 Nordeste 0 -- -- 56
2018-05-21 17:00:00 20.4 9 Oeste 17 Oeste 0 -- -- 51
2018-05-21 16:00:00 20.4 8 Sudoeste 16 Sudoeste 0 -- -- 50
2018-05-21 15:00:00 20.5 5 Oeste 18 Sudoeste 0 -- -- 54
2018-05-21 14:00:00 20.2 10 Sudoeste 19 Sudoeste 0 -- -- 53
2018-05-21 13:00:00 19.1 13 Oeste 22 Oeste 0 -- -- 62
2018-05-21 12:00:00 19 12 Oeste 19 Oeste 0 -- -- 58
2018-05-21 11:00:00 17.9 7 Oeste 12 Sudoeste 0 -- -- 69
2018-05-21 10:00:00 15 4 Este 11 Nordeste 0 -- -- 74
2018-05-21 09:00:00 12.1 5 Este 12 Este 0 -- -- 83
2018-05-21 08:00:00 10.9 8 Este 15 Este 0 -- -- 85
2018-05-21 07:00:00 10.3 8 Este 14 Este 0 -- -- 87
2018-05-21 06:00:00 10.4 8 Este 15 Nordeste 0 -- -- 88
2018-05-21 05:00:00 10.7 6 Este 19 Nordeste 0 -- -- 88
2018-05-21 04:00:00 11.1 8 Este 14 Este 0 -- -- 90
2018-05-21 03:00:00 11.5 7 Este 14 Este 0 -- -- 90
2018-05-21 02:00:00 11.9 7 Este 13 Este 0 -- -- 90
2018-05-21 01:00:00 12.5 6 Este 16 Este 0 -- -- 88
2018-05-21 00:00:00 12.6 6 Este 16 Nordeste 0 -- -- 88
2018-05-20 23:00:00 13 8 Nordeste 12 Nordeste 0 -- -- 89
2018-05-20 22:00:00 13.4 2 Oeste 15 Nordeste 0 -- -- 90
2018-05-20 21:00:00 13.9 8 Nordeste 14 Nordeste 0 -- -- 81
2018-05-20 20:00:00 14.2 8 Este 14 Nordeste 0 -- -- 85
2018-05-20 19:00:00 13.7 4 Este 9 Este 0.4 -- -- 91
2018-05-20 18:00:00 13 3 Sudoeste 12 Sudoeste 4 -- -- 91
2018-05-20 17:00:00 13.3 10 Sudoeste 16 Sur 4.4 -- -- 91
2018-05-20 16:00:00 16.2 10 Este 30 Nordeste 0 -- -- 65
2018-05-20 15:00:00 16.5 15 Nordeste 28 Nordeste 0.2 -- -- 71
2018-05-20 14:00:00 20.6 13 Oeste 28 Oeste 0 -- -- 50
2018-05-20 13:00:00 22.1 12 Sudoeste 20 Sudoeste 0 -- -- 45
2018-05-20 12:00:00 20.9 5 Oeste 14 Sudoeste 0 -- -- 48
2018-05-20 11:00:00 19.4 7 Oeste 12 Sudoeste 0 -- -- 58
2018-05-20 10:00:00 17.5 4 Oeste 9 Sudoeste 0 -- -- 62
2018-05-20 09:00:00 13.5 4 Este 13 Este 0 -- -- 73
2018-05-20 08:00:00 11.5 6 Este 14 Nordeste 0 -- -- 81
2018-05-20 07:00:00 9.9 7 Este 17 Este 0 -- -- 85
2018-05-20 06:00:00 10.4 8 Este 15 Este 0 -- -- 83
2018-05-20 05:00:00 10.2 8 Este 17 Este 0 -- -- 85
2018-05-20 04:00:00 10.6 10 Este 17 Este 0 -- -- 86
2018-05-20 03:00:00 11.1 6 Este 13 Este 0 -- -- 83
2018-05-20 02:00:00 12.2 8 Este 15 Nordeste 0 -- -- 77
2018-05-20 01:00:00 13 8 Nordeste 18 Este 0 -- -- 74
2018-05-20 00:00:00 13.3 10 Este 19 Este 0 -- -- 74
2018-05-19 23:00:00 13.6 8 Este 16 Norte 0 -- -- 72
2018-05-19 22:00:00 14.1 13 Nordeste 31 Nordeste 0 -- -- 71
2018-05-19 21:00:00 13.8 20 Nordeste 30 Este 0 -- -- 76
2018-05-19 20:00:00 14.6 10 Nordeste 19 Nordeste 0 -- -- 78
2018-05-19 19:00:00 15.1 5 Oeste 13 Sur 0 -- -- 79
2018-05-19 18:00:00 16 8 Sudoeste 16 Oeste 0 -- -- 82
2018-05-19 17:00:00 15.6 5 Sudoeste 16 Este 0 -- -- 83
2018-05-19 16:00:00 15.1 8 Este 16 Este 0.2 -- -- 85
2018-05-19 15:00:00 16.5 9 Este 20 Oeste 0 -- -- 77
2018-05-19 14:00:00 17 16 Oeste 24 Oeste 0.8 -- -- 72
2018-05-19 13:00:00 21.6 10 Sudoeste 21 Sudoeste 0 -- -- 48
2018-05-19 12:00:00 20.7 9 Sudoeste 18 Oeste 0 -- -- 54
2018-05-19 11:00:00 19.2 6 Sudoeste 15 Sudoeste 0 -- -- 59
2018-05-19 10:00:00 17.3 7 Sudoeste 10 Sudoeste 0 -- -- 63
2018-05-19 09:00:00 13.7 6 Este 16 Este 0 -- -- 72
2018-05-19 08:00:00 11.8 9 Este 23 Este 0 -- -- 78
2018-05-19 07:00:00 10.9 10 Este 16 Nordeste 0 -- -- 81
2018-05-19 06:00:00 10.8 8 Este 15 Este 0 -- -- 84
2018-05-19 05:00:00 11.1 9 Este 14 Este 0 -- -- 85
2018-05-19 04:00:00 11.6 9 Este 14 Este 0 -- -- 87
2018-05-19 03:00:00 12.1 6 Este 12 Este 0 -- -- 87
2018-05-19 02:00:00 13.2 5 Este 10 Sudeste 0 -- -- 84
2018-05-19 01:00:00 13.1 6 Este 11 Nordeste 0 -- -- 87
2018-05-19 00:00:00 13.7 3 Este 10 Este 0 -- -- 82
2018-05-18 23:00:00 13.9 5 Nordeste 12 Este 0 -- -- 83
2018-05-18 22:00:00 13.9 5 Este 9 Nordeste 0 -- -- 88
2018-05-18 21:00:00 14.8 4 Este 7 Este 0 -- -- 83
2018-05-18 20:00:00 15.3 4 Este 8 Este 0 -- -- 76
2018-05-18 19:00:00 15.8 4 Este 9 Este 0 -- -- 78
2018-05-18 18:00:00 16.2 3 Este 15 Sudoeste 0 -- -- 72
2018-05-18 17:00:00 17.7 6 Sudoeste 24 Sudoeste 0 -- -- 60
2018-05-18 16:00:00 21.4 9 Sudoeste 18 Sudoeste 0 -- -- 53
2018-05-18 15:00:00 19.5 10 Oeste 18 Sudoeste 0 -- -- 59
2018-05-18 14:00:00 20.3 8 Oeste 20 Sudoeste 0 -- -- 57
2018-05-18 13:00:00 18.8 8 Sudoeste 18 Sudoeste 0 -- -- 61
2018-05-18 12:00:00 18.9 10 Sudoeste 17 Sudoeste 0 -- -- 61
2018-05-18 11:00:00 18.4 5 Sudoeste 14 Sudoeste 0 -- -- 59
2018-05-18 10:00:00 16.9 5 Sudoeste 10 Sudoeste 0 -- -- 65
2018-05-18 09:00:00 13 5 Este 15 Este 0 -- -- 75
2018-05-18 08:00:00 11.4 7 Este 15 Este 0 -- -- 80
2018-05-18 07:00:00 10 9 Este 19 Este 0 -- -- 83
2018-05-18 06:00:00 10.4 9 Este 17 Este 0 -- -- 83
2018-05-18 05:00:00 10.7 8 Este 20 Nordeste 0 -- -- 83
2018-05-18 04:00:00 11.2 10 Nordeste 17 Nordeste 0 -- -- 83
2018-05-18 03:00:00 11 7 Nordeste 14 Nordeste 0 -- -- 88
2018-05-18 02:00:00 11.2 5 Este 9 Este 0 -- -- 91
2018-05-18 01:00:00 12.1 4 Nordeste 6 Este 0 -- -- 88
2018-05-18 00:00:00 13 2 Nordeste 7 Nordeste 0 -- -- 85
2018-05-17 23:00:00 13.6 5 Este 8 Este 0 -- -- 81
2018-05-17 22:00:00 14.4 3 Oeste 6 Oeste 0 -- -- 78
2018-05-17 21:00:00 15.2 4 Oeste 9 Sur 0 -- -- 78
2018-05-17 20:00:00 16 4 Sudoeste 17 Sudoeste 0 -- -- 68
2018-05-17 19:00:00 16.4 10 Oeste 15 Oeste 0 -- -- 66
2018-05-17 18:00:00 17 12 Sudoeste 21 Oeste 0 -- -- 68
2018-05-17 17:00:00 18 10 Oeste 18 Sudoeste 0 -- -- 64
2018-05-17 16:00:00 18.9 8 Este 19 Nordeste 0 -- -- 60
2018-05-17 15:00:00 22.3 14 Oeste 23 Oeste 0 -- -- 50
2018-05-17 14:00:00 20.4 9 Oeste 22 Oeste 0 -- -- 57
2018-05-17 13:00:00 20 10 Oeste 28 Sudoeste 0 -- -- 58
2018-05-17 12:00:00 19.9 13 Sudoeste 23 Sudoeste 0 -- -- 56
2018-05-17 11:00:00 18.5 8 Oeste 14 Sudoeste 0 -- -- 60
2018-05-17 10:00:00 16.5 3 Sudeste 10 Nordeste 0 -- -- 59
2018-05-17 09:00:00 12.6 5 Este 19 Este 0 -- -- 65
2018-05-17 08:00:00 10.4 9 Este 19 Este 0 -- -- 71
2018-05-17 07:00:00 9.5 9 Este 15 Este 0 -- -- 71
2018-05-17 06:00:00 9.7 9 Este 19 Nordeste 0 -- -- 73
2018-05-17 05:00:00 10.4 6 Este 18 Nordeste 0 -- -- 74
2018-05-17 04:00:00 10.2 7 Este 14 Este 0 -- -- 80
2018-05-17 03:00:00 10.7 9 Este 14 Este 0 -- -- 82
2018-05-17 02:00:00 11.4 6 Este 15 Nordeste 0 -- -- 83
2018-05-17 01:00:00 12 7 Este 12 Este 0 -- -- 85
2018-05-17 00:00:00 13 5 Este 8 Nordeste 0 -- -- 83
2018-05-16 23:00:00 14.1 3 Nordeste 6 Este 0 -- -- 78
2018-05-16 22:00:00 15.4 0 Calma 7 Sudeste 0 -- -- 72
2018-05-16 21:00:00 16.4 0 Calma 10 Sudoeste 0 -- -- 70
2018-05-16 20:00:00 17.4 3 Sur 6 Oeste 0 -- -- 61
2018-05-16 19:00:00 17.8 2 Sudoeste 6 Oeste 0 -- -- 58
2018-05-16 18:00:00 18.1 6 Oeste 9 Oeste 0 -- -- 60
2018-05-16 17:00:00 18 5 Sudoeste 9 Sudoeste 0 -- -- 61
2018-05-16 16:00:00 17.5 6 Oeste 8 Oeste 0 -- -- 60
2018-05-16 15:00:00 16.6 3 Oeste 9 Sudoeste 0 -- -- 71
2018-05-16 14:00:00 15.7 5 Oeste 14 Sudoeste 0 -- -- 72
2018-05-16 13:00:00 15.5 8 Oeste 14 Sudoeste 0 -- -- 74
2018-05-16 12:00:00 12.1 3 Sudoeste 7 Sudoeste 0 -- -- 83
2018-05-16 11:00:00 11.7 3 Sudoeste 9 Oeste 0 -- -- 82
2018-05-16 10:00:00 12.3 6 Sudoeste 9 Sudoeste 0 -- -- 79
2018-05-16 09:00:00 9.9 2 Sudoeste 8 Sudoeste 0 -- -- 85
2018-05-16 08:00:00 8.9 5 Sur 7 Sudoeste 0 -- -- 85
2018-05-16 07:00:00 8.3 3 Este 8 Este 0 -- -- 84
2018-05-16 06:00:00 8.7 3 Sudeste 9 Este 0 -- -- 82
2018-05-16 05:00:00 8.8 6 Este 11 Este 0 -- -- 81
2018-05-16 04:00:00 8.9 3 Oeste 13 Este 0 -- -- 81
2018-05-16 03:00:00 9 9 Este 13 Este 0 -- -- 82
2018-05-16 02:00:00 10.3 6 Este 11 Este 0 -- -- 77
2018-05-16 01:00:00 11 8 Este 14 Nordeste 0 -- -- 76
2018-05-16 00:00:00 11.8 3 Nordeste 11 Este 0 -- -- 81
2018-05-15 23:00:00 12.6 3 Este 9 Este 0 -- -- 79
2018-05-15 22:00:00 13.8 5 Este 8 Este 0 -- -- 74
2018-05-15 21:00:00 15.1 3 Este 9 Oeste 0 -- -- 71
2018-05-15 20:00:00 16.1 9 Oeste 13 Sudoeste 0 -- -- 68
2018-05-15 19:00:00 18.5 5 Sudoeste 10 Oeste 0 -- -- 61
2018-05-15 18:00:00 17.6 8 Oeste 12 Sudoeste 0 -- -- 62
2018-05-15 17:00:00 17.3 7 Oeste 15 Sudoeste 0 -- -- 63
2018-05-15 16:00:00 18.1 8 Sudoeste 17 Oeste 0 -- -- 59
2018-05-15 15:00:00 17.6 12 Sudoeste 18 Sudoeste 0 -- -- 62
2018-05-15 14:00:00 17.9 9 Sudoeste 18 Sudoeste 0 -- -- 57
2018-05-15 13:00:00 16.2 8 Sudoeste 16 Sudoeste 0 -- -- 63
2018-05-15 12:00:00 15 8 Sudoeste 18 Sudoeste 0 -- -- 66
2018-05-15 11:00:00 12.5 8 Sudoeste 14 Sudoeste 0 -- -- 74
2018-05-15 10:00:00 9.1 8 Oeste 12 Sudoeste 0 -- -- 83
2018-05-15 09:00:00 6.8 5 Sudoeste 19 Sudoeste 0 -- -- 90
2018-05-15 08:00:00 6.3 4 Nordeste 19 Sudoeste 0 -- -- 91
2018-05-15 07:00:00 5.3 2 Noroeste 10 Este 0 -- -- 92
2018-05-15 06:00:00 5.2 4 Norte 8 Este 0 -- -- 92
2018-05-15 05:00:00 5.6 4 Este 10 Este 0 -- -- 92
2018-05-15 04:00:00 6 5 Este 7 Este 0 -- -- 90
2018-05-15 03:00:00 7.1 4 Sudeste 7 Sudeste 0 -- -- 87
2018-05-15 02:00:00 7.5 4 Este 6 Este 0 -- -- 84
2018-05-15 01:00:00 8.5 3 Sudoeste 8 Sudoeste 0 -- -- 80
2018-05-15 00:00:00 9 3 Sudoeste 8 Sudoeste 0 -- -- 80
2018-05-14 23:00:00 9.4 2 Sudoeste 13 Sudoeste 0 -- -- 80
2018-05-14 22:00:00 10.6 8 Sudoeste 12 Oeste 0 -- -- 75
2018-05-14 21:00:00 11.7 8 Sudoeste 15 Oeste 0 -- -- 73
2018-05-14 20:00:00 13.1 6 Oeste 11 Este 0 -- -- 60
2018-05-14 19:00:00 14.1 5 Sudeste 12 Sudoeste 0 -- -- 52
2018-05-14 18:00:00 14.5 6 Sur 13 Este 0 -- -- 46
2018-05-14 17:00:00 14.4 7 Este 18 Este 0 -- -- 47
2018-05-14 16:00:00 14.5 6 Sudoeste 19 Sudoeste 0 -- -- 48
2018-05-14 15:00:00 13.8 10 Sudoeste 18 Sudoeste 0 -- -- 49
2018-05-14 14:00:00 13.8 13 Sudoeste 23 Oeste 0 -- -- 53
2018-05-14 13:00:00 15 16 Sudoeste 26 Sudoeste 0 -- -- 46
2018-05-14 12:00:00 14.5 8 Sudoeste 19 Sur 0 -- -- 51
2018-05-14 11:00:00 12.4 9 Sudoeste 16 Sudoeste 0 -- -- 64
2018-05-14 10:00:00 9.3 10 Sudoeste 16 Sudoeste 0 -- -- 70
2018-05-14 09:00:00 6.2 5 Sudoeste 9 Sudoeste 0 -- -- 79
2018-05-14 08:00:00 4.5 3 Nordeste 12 Nordeste 0 -- -- 81
2018-05-14 07:00:00 3.5 3 Este 12 Este 0 -- -- 84
2018-05-14 06:00:00 3.9 7 Este 12 Sudeste 0 -- -- 83
2018-05-14 05:00:00 4.3 5 Este 11 Este 0 -- -- 83
2018-05-14 04:00:00 4.9 5 Este 10 Nordeste 0 -- -- 81
2018-05-14 03:00:00 5.2 5 Este 14 Este 0 -- -- 80
2018-05-14 02:00:00 5.7 6 Este 13 Nordeste 0 -- -- 79
2018-05-14 01:00:00 6.6 6 Este 12 Nordeste 0 -- -- 78
2018-05-11 20:00:00 -- -- -- -- -- -- -- -- --
2018-05-11 19:00:00 21 9 Sudoeste 28 Sudoeste 0 -- -- 52
2018-05-11 18:00:00 22.5 15 Sudoeste 30 Sudoeste 0 -- -- 49
2018-05-11 17:00:00 22.3 18 Sudoeste 30 Oeste 0 -- -- 51
2018-05-11 16:00:00 21.9 18 Sudoeste 29 Sudoeste 0 -- -- 50
2018-05-11 15:00:00 20.9 18 Sudoeste 35 Sudoeste 0 -- -- 56
2018-05-11 14:00:00 19.8 21 Sudoeste 34 Sudoeste 0 -- -- 56
2018-05-11 13:00:00 19 18 Sudoeste 35 Sudoeste 0 -- -- 63
2018-05-11 12:00:00 17.9 14 Sudoeste 28 Sudoeste 0 -- -- 68
2018-05-11 11:00:00 15.3 4 Nordeste 13 Sudoeste 0 -- -- 83
2018-05-11 10:00:00 13.6 5 Sudoeste 12 Sur 0 -- -- 90
2018-05-11 09:00:00 11.6 6 Sudoeste 12 Sudoeste 0 -- -- 97
2018-05-11 08:00:00 11.3 4 Sur 7 Sudoeste 0 -- -- 96
2018-05-11 07:00:00 11.5 5 Oeste 7 Sudoeste 0 -- -- 96
2018-05-11 06:00:00 11.7 3 Este 5 Este 0 -- -- 95
2018-05-11 05:00:00 11.8 0 Calma 5 Este 0 -- -- 96
2018-05-11 04:00:00 11.7 2 Noroeste 5 Sudoeste 0 -- -- 96
2018-05-11 03:00:00 11.7 2 Noroeste 7 Sudoeste 0 -- -- 95
2018-05-11 02:00:00 12.1 5 Sudoeste 7 Sudoeste 0 -- -- 95
2018-05-11 01:00:00 12.3 3 Sudoeste 6 Nordeste 0 -- -- 93
2018-05-11 00:00:00 12.4 0 Calma 8 Este 0 -- -- 95
2018-05-10 23:00:00 12.8 2 Este 6 Este 0 -- -- 93
2018-05-10 22:00:00 13.1 0 Calma 6 Este 0 -- -- 92
2018-05-10 21:00:00 13.2 2 Sudeste 8 Sur 0 -- -- 90
2018-05-10 20:00:00 13.8 2 Este 13 Este 0 -- -- 85
2018-05-10 19:00:00 14.8 10 Este 22 Sudeste 0 -- -- 80
2018-05-10 18:00:00 15.3 3 Este 6 Este 0 -- -- 83
2018-05-10 17:00:00 15.3 0 Calma 10 Oeste 0 -- -- 83
2018-05-10 16:00:00 16.1 9 Oeste 15 Sudoeste 0 -- -- 82
2018-05-10 15:00:00 16.2 9 Sudoeste 21 Sudoeste 0 -- -- 76
2018-05-10 14:00:00 16.7 15 Sudoeste 22 Sudoeste 0 -- -- 75
2018-05-10 13:00:00 16.4 9 Sudoeste 18 Sudoeste 0 -- -- 79
2018-05-10 12:00:00 16.4 9 Sudoeste 19 Sudoeste 0 -- -- 74
2018-05-10 11:00:00 -- -- -- -- -- -- -- -- --
2018-05-10 10:00:00 -- -- -- -- -- -- -- -- --
2018-05-10 09:00:00 -- -- -- -- -- -- -- -- --
2018-05-10 08:00:00 -- -- -- -- -- -- -- -- --
2018-05-10 07:00:00 -- -- -- -- -- -- -- -- --
2018-05-10 06:00:00 -- -- -- -- -- -- -- -- --
2018-05-10 05:00:00 -- -- -- -- -- -- -- -- --
2018-05-10 04:00:00 -- -- -- -- -- -- -- -- --
2018-05-10 03:00:00 -- -- -- -- -- -- -- -- --
2018-05-10 02:00:00 -- -- -- -- -- -- -- -- --
2018-05-10 01:00:00 -- -- -- -- -- -- -- -- --
2018-05-10 00:00:00 -- -- -- -- -- -- -- -- --
2018-05-09 23:00:00 -- -- -- -- -- -- -- -- --
2018-05-09 22:00:00 -- -- -- -- -- -- -- -- --
2018-05-09 21:00:00 -- -- -- -- -- -- -- -- --
2018-05-09 20:00:00 -- -- -- -- -- -- -- -- --
2018-05-09 19:00:00 -- -- -- -- -- -- -- -- --
2018-05-09 18:00:00 -- -- -- -- -- -- -- -- --
2018-05-09 17:00:00 -- -- -- -- -- -- -- -- --
2018-05-09 16:00:00 -- -- -- -- -- -- -- -- --
2018-05-09 15:00:00 -- -- -- -- -- -- -- -- --
2018-05-09 14:00:00 -- -- -- -- -- -- -- -- --
2018-05-09 13:00:00 -- -- -- -- -- -- -- -- --
2018-05-09 12:00:00 -- -- -- -- -- -- -- -- --
2018-05-09 11:00:00 -- -- -- -- -- -- -- -- --
2018-05-09 10:00:00 -- -- -- -- -- -- -- -- --
2018-05-09 09:00:00 -- -- -- -- -- -- -- -- --
2018-05-09 08:00:00 -- -- -- -- -- -- -- -- --
2018-05-09 07:00:00 -- -- -- -- -- -- -- -- --
2018-05-09 06:00:00 -- -- -- -- -- -- -- -- --
2018-05-09 05:00:00 -- -- -- -- -- -- -- -- --
2018-05-09 04:00:00 -- -- -- -- -- -- -- -- --
2018-05-09 03:00:00 -- -- -- -- -- -- -- -- --
2018-05-09 02:00:00 -- -- -- -- -- -- -- -- --
2018-05-09 01:00:00 -- -- -- -- -- -- -- -- --
2018-05-09 00:00:00 -- -- -- -- -- -- -- -- --
2018-05-08 23:00:00 -- -- -- -- -- -- -- -- --
2018-05-08 22:00:00 -- -- -- -- -- -- -- -- --
2018-05-08 21:00:00 -- -- -- -- -- -- -- -- --
2018-05-08 20:00:00 -- -- -- -- -- -- -- -- --
2018-05-08 19:00:00 -- -- -- -- -- -- -- -- --
2018-05-08 18:00:00 -- -- -- -- -- -- -- -- --
2018-05-08 17:00:00 -- -- -- -- -- -- -- -- --
2018-05-08 16:00:00 -- -- -- -- -- -- -- -- --
2018-05-08 15:00:00 -- -- -- -- -- -- -- -- --
2018-05-08 14:00:00 -- -- -- -- -- -- -- -- --
2018-05-08 13:00:00 -- -- -- -- -- -- -- -- --
2018-05-08 12:00:00 -- -- -- -- -- -- -- -- --
2018-05-08 11:00:00 -- -- -- -- -- -- -- -- --
2018-05-08 10:00:00 -- -- -- -- -- -- -- -- --
2018-05-08 09:00:00 -- -- -- -- -- -- -- -- --
2018-05-08 08:00:00 -- -- -- -- -- -- -- -- --
2018-05-08 07:00:00 -- -- -- -- -- -- -- -- --
2018-05-08 06:00:00 -- -- -- -- -- -- -- -- --
2018-05-08 05:00:00 -- -- -- -- -- -- -- -- --
2018-05-08 04:00:00 -- -- -- -- -- -- -- -- --
2018-05-08 03:00:00 -- -- -- -- -- -- -- -- --
2018-05-08 02:00:00 -- -- -- -- -- -- -- -- --
2018-05-08 01:00:00 -- -- -- -- -- -- -- -- --
2018-05-08 00:00:00 -- -- -- -- -- -- -- -- --
2018-05-07 23:00:00 -- -- -- -- -- -- -- -- --
2018-05-07 22:00:00 -- -- -- -- -- -- -- -- --
2018-05-07 21:00:00 -- -- -- -- -- -- -- -- --
2018-05-07 20:00:00 -- -- -- -- -- -- -- -- --
2018-05-07 19:00:00 -- -- -- -- -- -- -- -- --
2018-05-07 18:00:00 -- -- -- -- -- -- -- -- --
2018-05-07 17:00:00 -- -- -- -- -- -- -- -- --
2018-05-07 16:00:00 -- -- -- -- -- -- -- -- --
2018-05-07 15:00:00 -- -- -- -- -- -- -- -- --
2018-05-07 14:00:00 -- -- -- -- -- -- -- -- --
2018-05-07 13:00:00 -- -- -- -- -- -- -- -- --
2018-05-07 12:00:00 -- -- -- -- -- -- -- -- --
2018-05-07 11:00:00 -- -- -- -- -- -- -- -- --
2018-05-07 10:00:00 -- -- -- -- -- -- -- -- --
2018-05-07 09:00:00 -- -- -- -- -- -- -- -- --
2018-05-07 08:00:00 -- -- -- -- -- -- -- -- --
2018-05-07 07:00:00 -- -- -- -- -- -- -- -- --
2018-05-07 06:00:00 -- -- -- -- -- -- -- -- --
2018-05-07 05:00:00 -- -- -- -- -- -- -- -- --
2018-05-07 04:00:00 -- -- -- -- -- -- -- -- --
2018-05-07 03:00:00 -- -- -- -- -- -- -- -- --
2018-05-07 02:00:00 -- -- -- -- -- -- -- -- --
2018-05-07 01:00:00 -- -- -- -- -- -- -- -- --
2018-05-07 00:00:00 -- -- -- -- -- -- -- -- --
2018-05-06 23:00:00 -- -- -- -- -- -- -- -- --
2018-05-06 22:00:00 -- -- -- -- -- -- -- -- --
2018-05-06 21:00:00 -- -- -- -- -- -- -- -- --
2018-05-06 20:00:00 -- -- -- -- -- -- -- -- --
2018-05-06 19:00:00 -- -- -- -- -- -- -- -- --
2018-05-06 18:00:00 -- -- -- -- -- -- -- -- --
2018-05-06 17:00:00 -- -- -- -- -- -- -- -- --
2018-05-06 16:00:00 -- -- -- -- -- -- -- -- --
2018-05-06 15:00:00 -- -- -- -- -- -- -- -- --
2018-05-06 14:00:00 -- -- -- -- -- -- -- -- --
2018-05-06 13:00:00 -- -- -- -- -- -- -- -- --
2018-05-06 12:00:00 -- -- -- -- -- -- -- -- --
2018-05-06 11:00:00 -- -- -- -- -- -- -- -- --
2018-05-06 10:00:00 -- -- -- -- -- -- -- -- --
2018-05-06 09:00:00 -- -- -- -- -- -- -- -- --
2018-05-06 08:00:00 -- -- -- -- -- -- -- -- --
2018-05-06 07:00:00 -- -- -- -- -- -- -- -- --
2018-05-06 06:00:00 -- -- -- -- -- -- -- -- --
2018-05-06 05:00:00 -- -- -- -- -- -- -- -- --
2018-05-06 04:00:00 -- -- -- -- -- -- -- -- --
2018-05-06 03:00:00 -- -- -- -- -- -- -- -- --
2018-05-06 02:00:00 -- -- -- -- -- -- -- -- --
2018-05-06 01:00:00 -- -- -- -- -- -- -- -- --
2018-05-06 00:00:00 -- -- -- -- -- -- -- -- --
2018-05-05 23:00:00 -- -- -- -- -- -- -- -- --
2018-05-05 22:00:00 -- -- -- -- -- -- -- -- --
2018-05-05 21:00:00 -- -- -- -- -- -- -- -- --
2018-05-05 20:00:00 -- -- -- -- -- -- -- -- --
2018-05-05 19:00:00 -- -- -- -- -- -- -- -- --
2018-05-05 18:00:00 -- -- -- -- -- -- -- -- --
2018-05-05 17:00:00 -- -- -- -- -- -- -- -- --
2018-05-05 16:00:00 -- -- -- -- -- -- -- -- --
2018-05-05 15:00:00 -- -- -- -- -- -- -- -- --
2018-05-05 14:00:00 -- -- -- -- -- -- -- -- --
2018-05-05 13:00:00 -- -- -- -- -- -- -- -- --
2018-05-05 12:00:00 -- -- -- -- -- -- -- -- --
2018-05-05 11:00:00 -- -- -- -- -- -- -- -- --
2018-05-05 10:00:00 -- -- -- -- -- -- -- -- --
2018-05-05 09:00:00 -- -- -- -- -- -- -- -- --
2018-05-05 08:00:00 -- -- -- -- -- -- -- -- --
2018-05-05 07:00:00 -- -- -- -- -- -- -- -- --
2018-05-05 06:00:00 -- -- -- -- -- -- -- -- --
2018-05-05 05:00:00 -- -- -- -- -- -- -- -- --
2018-05-05 04:00:00 -- -- -- -- -- -- -- -- --
2018-05-05 03:00:00 -- -- -- -- -- -- -- -- --
2018-05-05 02:00:00 -- -- -- -- -- -- -- -- --
2018-05-05 01:00:00 -- -- -- -- -- -- -- -- --
2018-05-05 00:00:00 -- -- -- -- -- -- -- -- --
2018-05-04 23:00:00 -- -- -- -- -- -- -- -- --
2018-05-04 22:00:00 -- -- -- -- -- -- -- -- --
2018-05-04 21:00:00 -- -- -- -- -- -- -- -- --
2018-05-04 20:00:00 -- -- -- -- -- -- -- -- --
2018-05-04 19:00:00 -- -- -- -- -- -- -- -- --
2018-05-04 18:00:00 -- -- -- -- -- -- -- -- --
2018-05-04 17:00:00 -- -- -- -- -- -- -- -- --
2018-05-04 16:00:00 -- -- -- -- -- -- -- -- --
2018-05-04 15:00:00 -- -- -- -- -- -- -- -- --
2018-05-04 14:00:00 -- -- -- -- -- -- -- -- --
2018-05-04 13:00:00 -- -- -- -- -- -- -- -- --
2018-05-04 12:00:00 -- -- -- -- -- -- -- -- --
2018-05-04 11:00:00 -- -- -- -- -- -- -- -- --
2018-05-04 10:00:00 -- -- -- -- -- -- -- -- --
2018-05-04 09:00:00 -- -- -- -- -- -- -- -- --
2018-05-04 08:00:00 -- -- -- -- -- -- -- -- --
2018-05-04 07:00:00 -- -- -- -- -- -- -- -- --
2018-05-04 06:00:00 -- -- -- -- -- -- -- -- --
2018-05-04 05:00:00 -- -- -- -- -- -- -- -- --
2018-05-04 04:00:00 -- -- -- -- -- -- -- -- --
2018-05-04 03:00:00 -- -- -- -- -- -- -- -- --
2018-05-04 02:00:00 -- -- -- -- -- -- -- -- --
2018-05-04 01:00:00 -- -- -- -- -- -- -- -- --
2018-05-04 00:00:00 -- -- -- -- -- -- -- -- --
2018-05-03 23:00:00 -- -- -- -- -- -- -- -- --
2018-05-03 22:00:00 -- -- -- -- -- -- -- -- --
2018-05-03 21:00:00 -- -- -- -- -- -- -- -- --
2018-05-03 20:00:00 -- -- -- -- -- -- -- -- --
2018-05-03 19:00:00 -- -- -- -- -- -- -- -- --
2018-05-03 18:00:00 -- -- -- -- -- -- -- -- --
2018-05-03 17:00:00 -- -- -- -- -- -- -- -- --
2018-05-03 16:00:00 -- -- -- -- -- -- -- -- --
2018-05-03 15:00:00 -- -- -- -- -- -- -- -- --
2018-05-03 14:00:00 -- -- -- -- -- -- -- -- --
2018-05-03 13:00:00 -- -- -- -- -- -- -- -- --
2018-05-03 12:00:00 -- -- -- -- -- -- -- -- --
2018-05-03 11:00:00 -- -- -- -- -- -- -- -- --
2018-05-03 10:00:00 -- -- -- -- -- -- -- -- --
2018-05-03 09:00:00 -- -- -- -- -- -- -- -- --
2018-05-03 08:00:00 -- -- -- -- -- -- -- -- --
2018-05-03 07:00:00 -- -- -- -- -- -- -- -- --
2018-05-03 06:00:00 -- -- -- -- -- -- -- -- --
2018-05-03 05:00:00 -- -- -- -- -- -- -- -- --
2018-05-03 04:00:00 -- -- -- -- -- -- -- -- --
2018-05-03 03:00:00 -- -- -- -- -- -- -- -- --
2018-05-03 02:00:00 -- -- -- -- -- -- -- -- --
2018-05-03 01:00:00 -- -- -- -- -- -- -- -- --
2018-05-03 00:00:00 -- -- -- -- -- -- -- -- --
2018-05-02 23:00:00 -- -- -- -- -- -- -- -- --
2018-05-02 22:00:00 -- -- -- -- -- -- -- -- --
2018-05-02 21:00:00 -- -- -- -- -- -- -- -- --
2018-05-02 20:00:00 -- -- -- -- -- -- -- -- --
2018-05-02 19:00:00 -- -- -- -- -- -- -- -- --
2018-05-02 18:00:00 -- -- -- -- -- -- -- -- --
2018-05-02 17:00:00 -- -- -- -- -- -- -- -- --
2018-05-02 16:00:00 -- -- -- -- -- -- -- -- --
2018-05-02 15:00:00 -- -- -- -- -- -- -- -- --
2018-05-02 14:00:00 -- -- -- -- -- -- -- -- --
2018-05-02 13:00:00 -- -- -- -- -- -- -- -- --
2018-05-02 12:00:00 -- -- -- -- -- -- -- -- --
2018-05-02 11:00:00 -- -- -- -- -- -- -- -- --
2018-05-02 10:00:00 -- -- -- -- -- -- -- -- --
2018-05-02 09:00:00 -- -- -- -- -- -- -- -- --
2018-05-02 08:00:00 -- -- -- -- -- -- -- -- --
2018-05-02 07:00:00 -- -- -- -- -- -- -- -- --
2018-05-02 06:00:00 -- -- -- -- -- -- -- -- --
2018-05-02 05:00:00 -- -- -- -- -- -- -- -- --
2018-05-02 04:00:00 -- -- -- -- -- -- -- -- --
2018-05-02 03:00:00 -- -- -- -- -- -- -- -- --
2018-05-02 02:00:00 -- -- -- -- -- -- -- -- --
2018-05-02 01:00:00 -- -- -- -- -- -- -- -- --
2018-05-02 00:00:00 -- -- -- -- -- -- -- -- --
2018-05-01 23:00:00 -- -- -- -- -- -- -- -- --
2018-05-01 22:00:00 -- -- -- -- -- -- -- -- --
2018-05-01 21:00:00 -- -- -- -- -- -- -- -- --
2018-05-01 20:00:00 -- -- -- -- -- -- -- -- --
2018-05-01 19:00:00 -- -- -- -- -- -- -- -- --
2018-05-01 18:00:00 -- -- -- -- -- -- -- -- --
2018-05-01 17:00:00 -- -- -- -- -- -- -- -- --
2018-05-01 16:00:00 -- -- -- -- -- -- -- -- --
2018-05-01 15:00:00 -- -- -- -- -- -- -- -- --
2018-05-01 14:00:00 -- -- -- -- -- -- -- -- --
2018-05-01 13:00:00 -- -- -- -- -- -- -- -- --
2018-05-01 12:00:00 -- -- -- -- -- -- -- -- --
2018-05-01 11:00:00 -- -- -- -- -- -- -- -- --
2018-05-01 10:00:00 -- -- -- -- -- -- -- -- --
2018-05-01 09:00:00 -- -- -- -- -- -- -- -- --
2018-05-01 08:00:00 -- -- -- -- -- -- -- -- --
2018-05-01 07:00:00 -- -- -- -- -- -- -- -- --
2018-05-01 06:00:00 -- -- -- -- -- -- -- -- --
2018-05-01 05:00:00 -- -- -- -- -- -- -- -- --
2018-05-01 04:00:00 -- -- -- -- -- -- -- -- --
2018-05-01 03:00:00 -- -- -- -- -- -- -- -- --
2018-05-01 02:00:00 -- -- -- -- -- -- -- -- --
2018-05-01 01:00:00 -- -- -- -- -- -- -- -- --
2018-05-01 00:00:00 -- -- -- -- -- -- -- -- --
2018-04-30 23:00:00 -- -- -- -- -- -- -- -- --
2018-04-30 22:00:00 -- -- -- -- -- -- -- -- --
2018-04-30 21:00:00 -- -- -- -- -- -- -- -- --
2018-04-30 20:00:00 -- -- -- -- -- -- -- -- --
2018-04-30 19:00:00 -- -- -- -- -- -- -- -- --
2018-04-30 18:00:00 -- -- -- -- -- -- -- -- --
2018-04-30 17:00:00 -- -- -- -- -- -- -- -- --
2018-04-30 16:00:00 -- -- -- -- -- -- -- -- --
2018-04-30 15:00:00 -- -- -- -- -- -- -- -- --
2018-04-30 14:00:00 -- -- -- -- -- -- -- -- --
2018-04-30 13:00:00 -- -- -- -- -- -- -- -- --
2018-04-30 12:00:00 -- -- -- -- -- -- -- -- --
2018-04-30 11:00:00 -- -- -- -- -- -- -- -- --
2018-04-30 10:00:00 -- -- -- -- -- -- -- -- --
2018-04-30 09:00:00 -- -- -- -- -- -- -- -- --
2018-04-30 08:00:00 -- -- -- -- -- -- -- -- --
2018-04-30 07:00:00 -- -- -- -- -- -- -- -- --
2018-04-30 06:00:00 -- -- -- -- -- -- -- -- --
2018-04-30 05:00:00 -- -- -- -- -- -- -- -- --
2018-04-30 04:00:00 -- -- -- -- -- -- -- -- --
2018-04-30 03:00:00 -- -- -- -- -- -- -- -- --
2018-04-30 02:00:00 -- -- -- -- -- -- -- -- --
2018-04-30 01:00:00 -- -- -- -- -- -- -- -- --
2018-04-30 00:00:00 -- -- -- -- -- -- -- -- --
2018-04-29 23:00:00 -- -- -- -- -- -- -- -- --
2018-04-29 22:00:00 -- -- -- -- -- -- -- -- --
2018-04-29 21:00:00 -- -- -- -- -- -- -- -- --
2018-04-29 20:00:00 -- -- -- -- -- -- -- -- --
2018-04-29 19:00:00 -- -- -- -- -- -- -- -- --
2018-04-29 18:00:00 -- -- -- -- -- -- -- -- --
2018-04-29 17:00:00 -- -- -- -- -- -- -- -- --
2018-04-29 16:00:00 -- -- -- -- -- -- -- -- --
2018-04-29 15:00:00 -- -- -- -- -- -- -- -- --
2018-04-29 14:00:00 -- -- -- -- -- -- -- -- --
2018-04-29 13:00:00 -- -- -- -- -- -- -- -- --
2018-04-29 12:00:00 10.6 10 Oeste 38 Oeste 1.2 -- -- 78
2018-04-29 11:00:00 13.2 11 Sudeste 36 Sudoeste 0 -- -- 79
2018-04-29 10:00:00 12.2 6 Este 13 Este 0.2 -- -- 85
2018-04-29 09:00:00 12.3 3 Este 5 Nordeste 0 -- -- 80
2018-04-29 08:00:00 12 2 Este 5 Este 0 -- -- 83
2018-04-29 07:00:00 11.8 2 Oeste 9 Sudeste 0 -- -- 87
2018-04-29 06:00:00 11.9 3 Este 9 Este 0 -- -- 89
2018-04-29 05:00:00 12 4 Nordeste 7 Este 0 -- -- 92
2018-04-29 04:00:00 12.1 2 Sudeste 6 Sudoeste 0 -- -- 91
2018-04-29 03:00:00 12.7 3 Sur 8 Nordeste 0 -- -- 90
2018-04-29 02:00:00 13.2 3 Sudoeste 9 Sudoeste 0 -- -- 88
2018-04-29 01:00:00 13.3 4 Sudoeste 11 Sudoeste 0 -- -- 90
2018-04-29 00:00:00 13.8 8 Sudoeste 15 Sudoeste 0 -- -- 88
2018-04-28 23:00:00 14.5 3 Sur 10 Sudoeste 0 -- -- 82
2018-04-28 22:00:00 15 5 Sudoeste 15 Sudoeste 0 -- -- 81
2018-04-28 21:00:00 16.2 8 Sudoeste 14 Sudoeste 0 -- -- 74
2018-04-28 20:00:00 17.6 6 Sudoeste 19 Sudoeste 0 -- -- 69
2018-04-28 19:00:00 18.5 11 Sudoeste 18 Oeste 0 -- -- 65
2018-04-28 18:00:00 19 9 Sudoeste 15 Sudoeste 0 -- -- 66
2018-04-28 17:00:00 19.1 8 Sudoeste 15 Sudoeste 0 -- -- 63
2018-04-28 16:00:00 19.8 10 Sudoeste 19 Sudoeste 0 -- -- 63
2018-04-28 15:00:00 19.8 9 Sudoeste 17 Sudoeste 0 -- -- 62
2018-04-28 14:00:00 17.3 7 Sudoeste 12 Sudoeste 0 -- -- 66
2018-04-28 13:00:00 16.8 6 Sudoeste 13 Sudoeste 0 -- -- 63
2018-04-28 12:00:00 16.8 8 Oeste 12 Oeste 0.2 -- -- 63
2018-04-28 11:00:00 15.4 2 Sudoeste 8 Sudoeste 0 -- -- 72
2018-04-28 10:00:00 13.9 3 Este 6 Nordeste 0 -- -- 84
2018-04-28 09:00:00 12.6 4 Este 9 Este 0 -- -- 88
2018-04-28 08:00:00 12 6 Este 12 Este 0 -- -- 91
2018-04-28 07:00:00 11.6 4 Este 9 Este 0 -- -- 92
2018-04-28 06:00:00 11.8 5 Este 8 Este 0 -- -- 90
2018-04-28 05:00:00 12.8 3 Norte 15 Nordeste 0 -- -- 87
2018-04-28 04:00:00 13.5 6 Este 24 Este 0 -- -- 81
2018-04-28 03:00:00 12.5 10 Este 17 Este 0 -- -- 90
2018-04-28 02:00:00 12.5 6 Este 10 Este 0 -- -- 91
2018-04-28 01:00:00 12.9 3 Este 15 Este 0 -- -- 88
2018-04-28 00:00:00 12.9 11 Este 23 Este 0.8 -- -- 87
2018-04-27 23:00:00 12.8 5 Este 11 Este 1.2 -- -- 91
2018-04-27 22:00:00 13.7 6 Sudoeste 22 Nordeste 0 -- -- 82
2018-04-27 21:00:00 12.9 9 Nordeste 24 Este 0.2 -- -- 86
2018-04-27 20:00:00 13.6 9 Este 26 Nordeste 0 -- -- 80
2018-04-27 19:00:00 17.8 13 Nordeste 27 Este 0 -- -- 57
2018-04-27 18:00:00 21.4 8 Este 19 Sudeste 0 -- -- 59
2018-04-27 17:00:00 23.9 6 Este 20 Sudoeste 0 -- -- 49
2018-04-27 16:00:00 24 9 Sur 25 Sudoeste 0 -- -- 50
2018-04-27 15:00:00 25.3 13 Oeste 29 Oeste 0 -- -- 47
2018-04-27 14:00:00 24 9 Sudoeste 18 Oeste 0 -- -- 54
2018-04-27 13:00:00 22.3 8 Sudoeste 18 Oeste 0 -- -- 56
2018-04-27 12:00:00 20.8 7 Oeste 14 Oeste 0 -- -- 62
2018-04-27 11:00:00 18.9 9 Oeste 15 Sudoeste 0 -- -- 68
2018-04-27 10:00:00 17.3 6 Sudoeste 12 Este 0 -- -- 75
2018-04-27 09:00:00 13.2 4 Este 9 Este 0 -- -- 91
2018-04-27 08:00:00 10.9 5 Este 8 Este 0 -- -- 94
2018-04-27 07:00:00 10.6 5 Este 10 Este 0 -- -- 94
2018-04-27 06:00:00 11.1 0 Calma 7 Este 0 -- -- 93
2018-04-27 05:00:00 11.8 4 Este 6 Este 0 -- -- 92
2018-04-27 04:00:00 12.4 0 Calma 7 Este 0 -- -- 90
2018-04-27 03:00:00 13.3 0 Calma 5 Sudoeste 0 -- -- 87
2018-04-27 02:00:00 14.3 0 Calma 4 Este 0 -- -- 83
2018-04-27 01:00:00 15.2 2 Sudoeste 5 Norte 0 -- -- 80
2018-04-27 00:00:00 15.5 2 Sur 5 Sur 0 -- -- 78
2018-04-26 23:00:00 15.7 2 Sur 11 Sudoeste 0 -- -- 78
2018-04-26 22:00:00 16.4 9 Oeste 15 Sudoeste 0 -- -- 76
2018-04-26 21:00:00 18 9 Sudoeste 16 Sudoeste 0 -- -- 71
2018-04-26 20:00:00 19.7 4 Sur 9 Sur 0 -- -- 64
2018-04-26 19:00:00 20.4 6 Sudoeste 17 Sudoeste 0 -- -- 60
2018-04-26 18:00:00 21.5 9 Oeste 18 Oeste 0 -- -- 58
2018-04-26 17:00:00 21.6 10 Sudoeste 20 Sudoeste 0 -- -- 58
2018-04-26 16:00:00 21.6 11 Oeste 19 Sudoeste 0 -- -- 58
2018-04-26 15:00:00 20.1 8 Sudoeste 18 Sudoeste 0 -- -- 60
2018-04-26 14:00:00 18.8 9 Sudoeste 22 Sudoeste 0 -- -- 67
2018-04-26 13:00:00 16.9 10 Sudoeste 18 Sudoeste 0 -- -- 75
2018-04-26 12:00:00 14.2 7 Oeste 12 Sudoeste 0 -- -- 82
2018-04-26 11:00:00 12.7 4 Oeste 13 Oeste 0 -- -- 85
2018-04-26 10:00:00 12.2 5 Oeste 12 Sudoeste 0 -- -- 88
2018-04-26 09:00:00 12.2 5 Sudoeste 10 Oeste 0 -- -- 89
2018-04-26 08:00:00 11.2 5 Sudoeste 8 Sudoeste 0 -- -- 91
2018-04-26 07:00:00 11.4 0 Calma 8 Este 0 -- -- 89
2018-04-26 06:00:00 11.7 5 Este 9 Este 0 -- -- 88
2018-04-26 05:00:00 12.1 7 Este 12 Nordeste 0 -- -- 88
2018-04-26 04:00:00 12.9 6 Este 12 Nordeste 0 -- -- 85
2018-04-26 03:00:00 13.7 6 Este 15 Este 0 -- -- 84
2018-04-26 02:00:00 14.2 6 Este 12 Este 0 -- -- 83
2018-04-26 01:00:00 15.1 0 Calma 15 Este 0 -- -- 81
2018-04-26 00:00:00 15.3 6 Este 15 Este 0 -- -- 81
2018-04-25 23:00:00 15.9 6 Este 12 Nordeste 0 -- -- 76
2018-04-25 22:00:00 17 3 Este 6 Sudeste 0 -- -- 68
2018-04-25 21:00:00 17.8 5 Sudoeste 9 Oeste 0 -- -- 64
2018-04-25 20:00:00 18.3 5 Sudoeste 14 Oeste 0 -- -- 63
2018-04-25 19:00:00 18.5 9 Oeste 16 Sudoeste 0 -- -- 60
2018-04-25 18:00:00 20.2 12 Sudoeste 22 Sudoeste 0 -- -- 56
2018-04-25 17:00:00 21.4 4 Este 18 Oeste 0 -- -- 64
2018-04-25 16:00:00 21.1 13 Noroeste 37 Oeste 1.8 -- -- 66
2018-04-25 15:00:00 27.7 17 Sudoeste 27 Sudoeste 0 -- -- 36
2018-04-25 14:00:00 26.4 11 Sudoeste 22 Sudoeste 0 -- -- 40
2018-04-25 13:00:00 26.3 12 Oeste 21 Oeste 0 -- -- 42
2018-04-25 12:00:00 24.9 9 Oeste 15 Sudoeste 0 -- -- 47
2018-04-25 11:00:00 23.7 8 Sudoeste 15 Sudoeste 0 -- -- 52
2018-04-25 10:00:00 20.4 7 Este 20 Sudeste 0 -- -- 58
2018-04-25 09:00:00 15.1 10 Este 16 Nordeste 0 -- -- 74
2018-04-25 08:00:00 14.6 7 Oeste 22 Este 0 -- -- 73
2018-04-25 07:00:00 14.9 12 Nordeste 21 Este 0 -- -- 71
2018-04-25 06:00:00 14.8 10 Este 21 Este 0 -- -- 71
2018-04-25 05:00:00 14.2 9 Este 23 Nordeste 0 -- -- 73
2018-04-25 04:00:00 13.7 10 Este 18 Nordeste 0 -- -- 76
2018-04-25 03:00:00 13.1 8 Este 15 Este 0 -- -- 81
2018-04-25 02:00:00 13 8 Este 13 Este 0 -- -- 82
2018-04-25 01:00:00 14.2 5 Este 9 Este 0 -- -- 76
2018-04-25 00:00:00 15.1 5 Este 7 Este 0 -- -- 73
2018-04-24 23:00:00 16.7 0 Calma 8 Este 0 -- -- 66
2018-04-24 22:00:00 18 3 Noroeste 9 Sudoeste 0 -- -- 60
2018-04-24 21:00:00 19.2 5 Oeste 10 Sudoeste 0 -- -- 59
2018-04-24 20:00:00 21.1 4 Oeste 12 Sudoeste 0 -- -- 55
2018-04-24 19:00:00 22.7 9 Sudoeste 21 Sudoeste 0 -- -- 51
2018-04-24 18:00:00 23.9 12 Sudoeste 31 Sudoeste 0 -- -- 47
2018-04-24 17:00:00 24.5 17 Sudoeste 28 Sudoeste 0 -- -- 45
2018-04-24 16:00:00 24.8 11 Sudoeste 22 Sudoeste 0 -- -- 45
2018-04-24 15:00:00 24.3 12 Sudoeste 24 Oeste 0 -- -- 43
2018-04-24 14:00:00 23.4 11 Sudoeste 26 Sudoeste 0 -- -- 45
2018-04-24 13:00:00 23.1 11 Sudoeste 24 Sudoeste 0 -- -- 50
2018-04-24 12:00:00 22.2 10 Sudoeste 18 Sudoeste 0 -- -- 52
2018-04-24 11:00:00 20.8 9 Oeste 15 Sudoeste 0 -- -- 53
2018-04-24 10:00:00 18.6 0 Calma 11 Este 0 -- -- 57
2018-04-24 09:00:00 14.9 6 Este 14 Nordeste 0 -- -- 63
2018-04-24 08:00:00 12.9 6 Este 16 Nordeste 0 -- -- 70
2018-04-24 07:00:00 12.3 6 Este 15 Nordeste 0 -- -- 72
2018-04-24 06:00:00 12.6 6 Este 15 Este 0 -- -- 72
2018-04-24 05:00:00 13 7 Este 15 Este 0 -- -- 71
2018-04-24 04:00:00 13.5 8 Este 15 Nordeste 0 -- -- 69
2018-04-24 03:00:00 13.3 9 Este 16 Este 0 -- -- 71
2018-04-24 02:00:00 13.5 9 Este 14 Este 0 -- -- 71
2018-04-24 01:00:00 14 7 Este 11 Este 0 -- -- 71
2018-04-24 00:00:00 15.2 6 Este 8 Este 0 -- -- 67